createdAt,value
2018-01-23T05:02:36.982Z,-0.15
2018-01-23T05:17:48.875Z,-0.39
2018-01-23T05:32:37.856Z,-0.60
2018-01-23T05:47:36.425Z,-0.71
2018-01-23T06:02:38.345Z,-0.73
2018-01-23T06:17:36.270Z,-0.56
2018-01-23T06:32:35.054Z,1.71
2018-01-23T06:47:38.766Z,2.77
2018-01-23T07:02:39.321Z,3.54
2018-01-23T07:17:36.496Z,3.86
2018-01-23T07:32:35.174Z,4.00
2018-01-23T07:47:36.675Z,3.79
2018-01-23T08:02:35.615Z,3.60
2018-01-23T08:17:56.715Z,4.11
2018-01-23T08:47:38.552Z,4.32
2018-01-23T09:02:37.570Z,4.95
2018-01-23T09:17:37.208Z,5.20
2018-01-23T10:02:36.639Z,6.47
2018-01-23T10:47:36.355Z,7.87
2018-01-23T11:02:36.836Z,8.29
2018-01-23T11:17:35.097Z,8.13
2018-01-23T11:32:34.990Z,7.94
2018-01-23T11:47:43.578Z,7.95
2018-01-23T12:02:38.671Z,8.35
2018-01-23T12:17:39.836Z,7.95
2018-01-23T12:32:35.447Z,7.50
2018-01-23T12:47:34.298Z,7.18
2018-01-23T13:02:35.649Z,6.93
2018-01-23T14:32:40.257Z,4.79
2018-01-23T14:47:35.338Z,4.34
2018-01-23T15:02:38.124Z,4.07
2018-01-23T15:17:38.115Z,3.89
2018-01-23T15:32:34.528Z,3.77
2018-01-23T15:47:38.114Z,3.69
2018-01-23T16:02:34.365Z,3.58
2018-01-23T16:17:39.703Z,3.54
2018-01-23T16:32:42.977Z,3.46
2018-01-23T16:47:39.539Z,3.35
2018-01-23T17:02:37.675Z,3.28
2018-01-23T17:17:35.818Z,3.20
2018-01-23T17:32:35.465Z,2.24
2018-01-23T17:47:34.859Z,1.95
2018-01-23T18:02:36.828Z,2.26
2018-01-23T18:17:37.819Z,2.23
2018-01-23T18:32:38.480Z,2.24
2018-01-23T18:47:56.671Z,2.02
2018-01-23T19:02:36.117Z,2.04
2018-01-23T19:17:37.137Z,1.97
2018-01-23T19:32:34.867Z,1.64
2018-01-23T19:47:36.518Z,1.62
2018-01-23T20:02:36.353Z,1.87
2018-01-23T20:17:35.893Z,2.05
2018-01-23T20:32:48.791Z,2.17
2018-01-23T20:47:34.601Z,2.28
2018-01-23T21:02:36.511Z,2.25
2018-01-23T21:17:42.265Z,2.17
2018-01-23T21:32:46.356Z,2.17
2018-01-23T21:47:44.967Z,2.24
2018-01-23T22:02:34.743Z,2.30
2018-01-23T22:17:36.623Z,2.31
2018-01-23T22:32:36.559Z,2.30
2018-01-23T22:47:34.976Z,2.27
2018-01-23T23:02:35.531Z,2.26
2018-01-23T23:17:34.881Z,2.20
2018-01-23T23:32:34.739Z,2.16
2018-01-23T23:47:34.247Z,2.13
